Time;durP1;ratioP1;P1;durP2;ratioP2;P2;SDS_P1;SDS_P2;PMS_P1;PMS_P2;Temp;Humidity;BMP_temperature;BMP_pressure;BME280_temperature;BME280_humidity;BME280_pressure;Samples;Min_cycle;Max_cycle;Signal;HPM_P1;HPM_P2
2021/12/15 00:00:20;;;;;;;;;45.33;39.33;;;;;13.33;60.33;102383.31;6225127;22;45309;-85
2021/12/15 00:02:50;;;;;;;;;44.67;38.00;;;;;13.18;61.04;102368.63;6225433;22;45703;-85
2021/12/15 00:05:21;;;;;;;;;44.00;38.00;;;;;13.22;60.91;102388.31;6224189;22;45536;-85
2021/12/15 00:07:58;;;;;;;;;39.67;36.67;;;;;13.46;60.66;102371.22;6220978;22;48374;-85
2021/12/15 00:10:25;;;;;;;;;49.33;36.33;;;;;13.24;60.61;102365.22;6224156;22;45726;-85
2021/12/15 00:12:51;;;;;;;;;46.33;39.00;;;;;13.05;61.04;102360.19;6221314;22;45318;-85
2021/12/15 00:15:27;;;;;;;;;43.00;38.00;;;;;13.19;61.03;102366.88;6221656;22;45445;-85
2021/12/15 00:17:54;;;;;;;;;42.33;38.00;;;;;13.05;61.38;102369.13;6220622;22;47235;-85
2021/12/15 00:20:21;;;;;;;;;46.00;38.00;;;;;13.07;61.25;102375.44;6222222;22;45348;-86
2021/12/15 00:22:52;;;;;;;;;46.67;39.00;;;;;13.00;61.54;102363.63;6221531;22;45303;-84
2021/12/15 00:25:21;;;;;;;;;42.33;37.00;;;;;13.23;61.38;102363.44;6221923;22;45399;-84
2021/12/15 00:27:46;;;;;;;;;45.67;38.33;;;;;13.18;61.46;102370.41;6237342;22;45728;-84
2021/12/15 00:30:12;;;;;;;;;49.33;36.67;;;;;13.29;60.88;102368.03;6253345;22;45578;-85
2021/12/15 00:32:38;;;;;;;;;43.67;37.67;;;;;13.18;61.04;102359.72;6253607;22;45446;-84
2021/12/15 00:35:05;;;;;;;;;39.67;37.00;;;;;13.33;61.04;102359.25;6226445;22;45360;-84
2021/12/15 00:37:31;;;;;;;;;42.67;36.67;;;;;13.21;61.37;102366.06;6226860;22;47399;-86
2021/12/15 00:39:56;;;;;;;;;38.67;36.33;;;;;13.31;61.55;102361.00;6253907;22;45621;-86
2021/12/15 00:42:22;;;;;;;;;42.67;36.33;;;;;13.35;61.13;102357.53;6255285;22;45284;-85
2021/12/15 00:44:51;;;;;;;;;49.67;39.00;;;;;13.60;61.05;102354.72;6253793;22;45667;-84
2021/12/15 00:47:18;;;;;;;;;38.00;31.67;;;;;13.46;60.75;102356.09;6252567;22;45585;-85
2021/12/15 00:49:44;;;;;;;;;43.33;37.67;;;;;13.26;60.60;102362.59;6224880;22;45443;-85
2021/12/15 00:52:10;;;;;;;;;33.00;33.00;;;;;13.32;60.96;102366.38;6224909;22;45388;-84
2021/12/15 00:54:37;;;;;;;;;33.67;31.33;;;;;13.37;60.64;102362.09;6253141;22;45434;-86
2021/12/15 00:57:04;;;;;;;;;35.00;32.67;;;;;13.31;59.78;102353.91;6225249;22;47149;-84
2021/12/15 00:59:30;;;;;;;;;35.67;33.67;;;;;13.20;60.13;102357.97;6225112;22;45342;-84
2021/12/15 01:01:55;;;;;;;;;36.00;34.00;;;;;13.19;60.77;102361.53;6226790;22;45390;-84
2021/12/15 01:04:23;;;;;;;;;41.67;35.00;;;;;13.35;60.96;102352.19;6253587;22;44800;-83
2021/12/15 01:06:53;;;;;;;;;36.33;33.00;;;;;13.47;60.57;102359.66;6225409;22;47319;-84
2021/12/15 01:09:44;;;;;;;;;37.00;33.33;;;;;13.71;60.23;102367.47;6224133;22;45217;-84
2021/12/15 01:20:41;;;;;;;;;37.33;36.33;;;;;13.51;59.89;102359.81;6252103;22;45427;-85
2021/12/15 01:34:39;;;;;;;;;30.33;27.00;;;;;13.73;58.95;102363.94;6241017;22;45889;-85
2021/12/15 01:37:06;;;;;;;;;31.67;29.67;;;;;13.42;59.30;102356.88;6221740;22;45438;-84
2021/12/15 01:39:33;;;;;;;;;30.33;27.33;;;;;13.37;59.92;102348.72;6222731;22;45383;-83
2021/12/15 01:42:01;;;;;;;;;40.00;35.33;;;;;13.21;59.70;102354.47;6194714;22;47826;-85
2021/12/15 01:46:59;;;;;;;;;35.67;30.67;;;;;13.30;59.76;102351.19;6219613;22;45416;-83
2021/12/15 01:49:48;;;;;;;;;36.33;34.67;;;;;13.45;60.00;102358.72;6196793;22;45322;-84
2021/12/15 01:52:35;;;;;;;;;34.67;30.33;;;;;13.43;60.05;102339.06;6221570;22;46121;-84
2021/12/15 01:55:12;;;;;;;;;38.00;33.67;;;;;13.48;59.71;102359.72;6223230;22;45371;-84
2021/12/15 01:57:39;;;;;;;;;32.67;29.67;;;;;13.25;59.99;102367.06;6195961;22;45435;-83
2021/12/15 02:00:12;;;;;;;;;38.33;35.33;;;;;13.44;60.00;102375.63;6196500;22;45398;-84
2021/12/15 02:02:38;;;;;;;;;33.00;29.67;;;;;13.21;60.40;102376.75;6225251;22;45413;-85
2021/12/15 02:05:04;;;;;;;;;38.67;34.67;;;;;13.20;59.69;102372.25;6197573;22;45845;-84
2021/12/15 02:07:30;;;;;;;;;21.33;18.00;;;;;13.03;59.80;102352.16;6224152;22;44827;-85
2021/12/15 02:12:26;;;;;;;;;41.33;37.00;;;;;13.22;60.16;102374.97;6221169;22;45393;-85
2021/12/15 02:14:52;;;;;;;;;33.00;31.67;;;;;13.16;59.89;102380.13;6194451;22;45363;-85
2021/12/15 02:17:18;;;;;;;;;40.00;33.33;;;;;13.16;60.15;102385.47;6193415;22;45326;-85
2021/12/15 02:19:44;;;;;;;;;31.00;31.00;;;;;13.12;60.19;102383.56;6222074;22;44715;-84
2021/12/15 02:22:53;;;;;;;;;32.00;32.00;;;;;13.53;58.81;102394.59;6222051;22;45280;-84
2021/12/15 02:25:18;;;;;;;;;36.00;34.67;;;;;13.08;59.89;102382.56;6221931;22;44683;-85
2021/12/15 02:27:44;;;;;;;;;35.00;30.33;;;;;13.10;60.43;102378.16;6195923;22;44714;-84
2021/12/15 02:30:49;;;;;;;;;44.67;34.67;;;;;13.40;59.99;102388.00;6223402;22;45340;-85
2021/12/15 02:38:37;;;;;;;;;27.00;24.67;;;;;13.30;59.56;102388.59;6251930;22;45336;-85
2021/12/15 02:41:11;;;;;;;;;32.33;30.00;;;;;13.26;60.12;102384.88;6225209;22;45360;-84
2021/12/15 02:43:38;;;;;;;;;31.33;29.33;;;;;13.09;60.27;102371.03;6225126;22;46778;-85
2021/12/15 02:46:05;;;;;;;;;31.00;28.67;;;;;13.25;60.01;102383.09;6251812;22;45371;-85
2021/12/15 02:48:30;;;;;;;;;38.33;35.33;;;;;13.24;59.99;102378.59;6225923;22;45448;-84
2021/12/15 02:50:56;;;;;;;;;42.67;35.00;;;;;13.26;60.09;102375.97;6253837;22;45412;-85
2021/12/15 02:53:23;;;;;;;;;32.00;29.00;;;;;13.38;59.61;102379.91;6252860;22;45524;-84
2021/12/15 02:55:49;;;;;;;;;32.00;30.00;;;;;13.15;60.18;102363.19;6226066;22;45515;-84
2021/12/15 02:58:17;;;;;;;;;35.00;33.00;;;;;13.30;60.02;102381.47;6253594;22;45639;-85
2021/12/15 03:00:54;;;;;;;;;45.00;37.00;;;;;13.41;60.16;102379.09;6226171;22;45280;-84
2021/12/15 03:06:10;;;;;;;;;34.67;33.67;;;;;13.31;59.53;102383.28;6254489;22;45435;-85
2021/12/15 03:08:51;;;;;;;;;35.00;32.67;;;;;13.34;59.87;102382.47;6255235;22;45678;-84
2021/12/15 03:16:45;;;;;;;;;40.67;34.67;;;;;13.45;59.74;102374.75;6254641;22;45337;-84
2021/12/15 03:19:12;;;;;;;;;35.67;32.67;;;;;13.66;59.53;102375.38;6227628;22;45289;-85
2021/12/15 03:21:38;;;;;;;;;37.67;34.67;;;;;13.54;59.54;102375.03;6226490;22;45094;-85
2021/12/15 03:24:13;;;;;;;;;32.67;32.67;;;;;13.73;59.53;102377.31;6253317;22;46225;-85
2021/12/15 03:26:48;;;;;;;;;35.67;33.00;;;;;13.73;58.89;102377.31;6252880;22;45075;-86
2021/12/15 03:35:19;;;;;;;;;33.33;31.67;;;;;13.72;58.91;102380.88;6252501;22;45389;-84
2021/12/15 03:37:53;;;;;;;;;26.33;26.33;;;;;13.56;59.62;102384.00;6254495;22;45247;-84
2021/12/15 03:40:26;;;;;;;;;38.67;34.67;;;;;13.54;58.63;102377.69;6254176;22;45404;-84
2021/12/15 03:43:01;;;;;;;;;28.00;27.67;;;;;13.51;58.64;102388.28;6226288;22;45229;-86
2021/12/15 03:45:37;;;;;;;;;29.67;27.00;;;;;13.40;59.75;102391.56;6225097;22;46830;-84
2021/12/15 03:48:07;;;;;;;;;36.00;33.00;;;;;13.44;58.89;102395.22;6252743;22;45640;-84
2021/12/15 03:50:33;;;;;;;;;33.67;26.33;;;;;13.20;59.63;102390.03;6225262;22;45375;-85
2021/12/15 03:52:59;;;;;;;;;37.33;34.00;;;;;13.25;59.78;102379.47;6225290;22;45501;-85
2021/12/15 03:55:28;;;;;;;;;36.00;32.67;;;;;13.44;59.77;102391.66;6253288;22;46565;-83
2021/12/15 03:57:56;;;;;;;;;31.33;26.67;;;;;13.28;59.27;102385.81;6224805;22;45770;-85
2021/12/15 04:00:23;;;;;;;;;33.67;32.67;;;;;12.99;59.29;102348.47;6225312;22;45450;-84
2021/12/15 04:06:17;;;;;;;;;46.67;41.33;;;;;13.25;59.35;102356.38;6252564;22;45502;-85
2021/12/15 04:08:43;;;;;;;;;50.67;42.33;;;;;13.15;59.75;102391.69;6253652;22;45052;-84
2021/12/15 04:11:12;;;;;;;;;41.67;37.67;;;;;13.37;59.69;102378.13;6227723;22;45456;-84
2021/12/15 04:13:39;;;;;;;;;55.75;44.25;;;;;13.25;60.14;102383.09;6228177;22;45281;-85
2021/12/15 04:16:08;;;;;;;;;55.25;45.00;;;;;13.24;59.54;102385.69;6255704;22;45628;-84
2021/12/15 04:18:36;;;;;;;;;57.50;47.75;;;;;13.27;59.56;102380.44;6255418;22;45384;-84
2021/12/15 04:21:04;;;;;;;;;59.75;46.50;;;;;13.18;60.13;102373.06;6255180;22;44728;-84
2021/12/15 04:23:30;;;;;;;;;57.50;47.75;;;;;13.16;60.33;102385.47;6255454;22;45695;-84
2021/12/15 04:25:59;;;;;;;;;60.25;50.50;;;;;13.46;60.18;102387.28;6252087;22;45344;-83
2021/12/15 04:28:33;;;;;;;;;59.00;49.50;;;;;13.35;60.12;102363.81;6253862;22;45409;-84
2021/12/15 04:31:04;;;;;;;;;60.00;46.25;;;;;13.31;60.15;102371.69;6226280;22;45340;-85
2021/12/15 04:33:54;;;;;;;;;60.00;48.25;;;;;13.64;60.20;102382.44;6227016;22;45320;-85
2021/12/15 04:36:27;;;;;;;;;56.75;46.25;;;;;13.65;59.76;102373.53;6225771;22;46659;-85
2021/12/15 04:38:54;;;;;;;;;57.75;47.25;;;;;13.48;59.74;102377.53;6253406;22;45623;-85
2021/12/15 04:41:20;;;;;;;;;61.50;48.25;;;;;13.48;59.89;102390.91;6224574;22;45337;-84
2021/12/15 04:43:56;;;;;;;;;59.50;49.50;;;;;13.53;59.42;102386.56;6226078;22;45853;-84
2021/12/15 04:46:23;;;;;;;;;54.50;46.00;;;;;13.48;59.62;102388.22;6253818;22;46065;-83
2021/12/15 04:48:48;;;;;;;;;53.67;45.00;;;;;13.47;59.84;102399.75;6254964;22;44764;-84
2021/12/15 04:51:14;;;;;;;;;42.33;38.00;;;;;13.47;59.74;102391.72;6225985;22;45333;-85
2021/12/15 04:53:39;;;;;;;;;55.00;45.67;;;;;13.44;59.54;102378.31;6227279;22;45449;-84
2021/12/15 04:56:06;;;;;;;;;41.33;36.33;;;;;13.62;59.34;102392.19;6226766;22;48164;-84
2021/12/15 04:58:32;;;;;;;;;32.33;28.00;;;;;13.46;59.41;102397.97;6225861;22;45304;-83
2021/12/15 05:01:03;;;;;;;;;40.00;36.00;;;;;13.63;59.42;102393.97;6228030;22;45423;-84
2021/12/15 05:03:29;;;;;;;;;38.00;32.33;;;;;13.48;59.50;102393.56;6227145;22;45345;-84
2021/12/15 05:05:54;;;;;;;;;38.33;36.00;;;;;13.48;59.49;102394.47;6225472;22;47297;-84
2021/12/15 05:08:57;;;;;;;;;25.33;25.33;;;;;13.87;58.31;102406.22;6253125;22;45323;-83
2021/12/15 05:11:23;;;;;;;;;31.33;28.33;;;;;13.45;59.31;102406.81;6225952;22;45406;-84
2021/12/15 05:13:48;;;;;;;;;31.33;26.33;;;;;13.47;59.03;102413.13;6226204;22;45393;-84
2021/12/15 05:16:16;;;;;;;;;29.33;27.00;;;;;13.51;59.19;102412.34;6226220;22;46932;-84
2021/12/15 05:18:42;;;;;;;;;26.67;25.00;;;;;13.52;59.19;102417.75;6226151;22;45426;-83
2021/12/15 05:21:10;;;;;;;;;22.00;21.00;;;;;13.51;59.07;102412.34;6253874;22;45535;-83
2021/12/15 05:23:35;;;;;;;;;26.00;23.33;;;;;13.55;59.41;102416.91;6253974;22;45412;-84
2021/12/15 05:26:03;;;;;;;;;21.00;20.00;;;;;13.78;59.05;102418.47;6256863;22;45725;-84
2021/12/15 05:28:29;;;;;;;;;32.33;27.67;;;;;13.57;59.13;102407.16;6228944;22;45632;-83
2021/12/15 05:30:56;;;;;;;;;36.00;28.33;;;;;13.72;59.01;102423.66;6254911;22;45331;-85
2021/12/15 05:33:21;;;;;;;;;26.33;23.33;;;;;13.60;59.04;102404.59;6226197;22;45371;-84
2021/12/15 05:35:47;;;;;;;;;37.67;32.33;;;;;13.68;58.96;102416.41;6220752;22;47104;-86
2021/12/15 05:38:14;;;;;;;;;31.67;29.67;;;;;13.89;58.87;102431.25;6221524;22;46632;-84
2021/12/15 05:40:40;;;;;;;;;29.33;23.00;;;;;13.67;58.84;102419.94;6195054;22;45788;-85
2021/12/15 05:43:07;;;;;;;;;21.67;18.67;;;;;13.80;58.45;102427.44;6221482;22;45438;-84
2021/12/15 05:45:36;;;;;;;;;26.67;23.33;;;;;13.91;58.47;102425.06;6221765;22;48444;-85
2021/12/15 05:48:05;;;;;;;;;22.67;21.67;;;;;13.86;58.37;102423.16;6220251;22;45205;-84
2021/12/15 05:50:32;;;;;;;;;25.33;21.33;;;;;13.86;58.43;102436.53;6223338;22;45337;-83
2021/12/15 05:53:00;;;;;;;;;22.67;22.00;;;;;13.74;58.06;102437.09;6223936;22;45358;-83
2021/12/15 05:55:26;;;;;;;;;22.00;19.00;;;;;13.71;58.37;102443.22;6197475;22;47206;-84
2021/12/15 05:57:52;;;;;;;;;23.00;20.00;;;;;13.57;58.63;102439.25;6221205;22;45310;-83
2021/12/15 06:00:21;;;;;;;;;22.00;19.33;;;;;13.80;58.35;102438.16;6223178;22;44793;-84
2021/12/15 06:02:48;;;;;;;;;20.67;20.67;;;;;13.75;58.32;102439.78;6224223;22;45447;-84
2021/12/15 06:05:14;;;;;;;;;26.67;26.33;;;;;13.52;58.52;102435.56;6222833;22;45267;-84
2021/12/15 06:07:40;;;;;;;;;22.67;20.00;;;;;13.43;58.54;102419.25;6220917;22;45409;-84
2021/12/15 06:10:09;;;;;;;;;24.00;17.00;;;;;13.70;58.75;102446.78;6223464;22;45354;-84
2021/12/15 06:12:35;;;;;;;;;24.00;19.00;;;;;13.52;58.46;102440.91;6221067;22;45749;-84
2021/12/15 06:15:02;;;;;;;;;21.00;18.00;;;;;13.56;58.49;102453.50;6221476;22;47114;-84
2021/12/15 06:17:28;;;;;;;;;16.00;15.67;;;;;13.52;58.75;102451.59;6222763;22;45622;-85
2021/12/15 06:19:53;;;;;;;;;21.67;21.33;;;;;13.53;58.23;102450.72;6224271;22;44673;-84
2021/12/15 06:22:24;;;;;;;;;18.67;15.33;;;;;13.55;58.76;102449.00;6223556;22;45113;-83
2021/12/15 06:24:51;;;;;;;;;23.00;19.33;;;;;13.59;58.49;102454.50;6222161;22;47324;-84
2021/12/15 06:27:19;;;;;;;;;16.00;15.33;;;;;13.57;58.42;102453.53;6222139;22;45343;-84
2021/12/15 06:29:49;;;;;;;;;21.33;19.33;;;;;13.68;58.01;102464.53;6222946;22;45417;-84
2021/12/15 06:32:16;;;;;;;;;20.67;15.00;;;;;13.60;58.45;102466.09;6223370;22;45369;-84
2021/12/15 06:34:43;;;;;;;;;27.67;19.67;;;;;13.73;58.25;102452.19;6223380;22;47012;-84
2021/12/15 06:37:10;;;;;;;;;20.33;20.33;;;;;13.68;58.23;102459.19;6221927;22;45649;-84
2021/12/15 06:39:36;;;;;;;;;19.00;17.33;;;;;13.58;57.78;102471.38;6224033;22;45200;-84
2021/12/15 06:42:02;;;;;;;;;16.67;15.00;;;;;13.57;57.58;102465.97;6225222;22;44709;-84
2021/12/15 06:44:28;;;;;;;;;22.67;20.00;;;;;13.43;57.69;102470.00;6225713;22;45420;-83
2021/12/15 06:59:40;;;;;;;;;18.00;17.67;;;;;13.45;58.09;102479.88;6229824;22;45348;-83
2021/12/15 07:05:28;;;;;;;;;19.33;19.33;;;;;13.51;57.81;102485.44;6225551;22;45315;-84
2021/12/15 07:07:56;;;;;;;;;16.67;16.67;;;;;13.63;58.26;102489.31;6223186;22;47275;-84
2021/12/15 07:10:25;;;;;;;;;21.00;19.67;;;;;13.66;57.93;102484.97;6226935;22;44803;-85
2021/12/15 07:12:51;;;;;;;;;19.00;17.67;;;;;13.57;57.69;102482.03;6224560;22;45316;-84
2021/12/15 07:15:21;;;;;;;;;19.33;17.33;;;;;13.54;58.21;102495.31;6223246;22;44892;-85
2021/12/15 07:17:49;;;;;;;;;22.67;19.33;;;;;13.49;57.38;102494.25;6224107;22;45367;-84
2021/12/15 07:22:59;;;;;;;;;19.00;17.00;;;;;13.57;58.25;102504.34;6226264;22;45369;-84
2021/12/15 07:25:26;;;;;;;;;20.00;19.00;;;;;13.55;57.66;102502.47;6226523;22;45270;-85
2021/12/15 07:27:55;;;;;;;;;22.67;21.33;;;;;13.56;57.71;102510.53;6201102;22;46883;-85
2021/12/15 07:30:48;;;;;;;;;26.00;21.67;;;;;13.45;57.79;102513.72;6202878;22;45236;-85
2021/12/15 07:33:16;;;;;;;;;20.67;18.67;;;;;13.55;58.12;102521.16;6203386;22;45392;-86
2021/12/15 07:35:49;;;;;;;;;28.67;19.67;;;;;13.26;57.83;102507.78;6201085;22;45389;-84
2021/12/15 07:38:16;;;;;;;;;19.00;19.00;;;;;13.29;58.43;102523.97;6227070;22;46507;-85
2021/12/15 07:40:46;;;;;;;;;19.00;19.00;;;;;13.26;58.24;102523.81;6225093;22;45420;-83
2021/12/15 07:43:23;;;;;;;;;21.33;19.00;;;;;13.36;58.16;102525.06;6226801;22;45357;-85
2021/12/15 07:49:12;;;;;;;;;24.33;23.00;;;;;13.43;58.09;102535.06;6226811;22;45385;-85
2021/12/15 07:51:42;;;;;;;;;18.00;18.00;;;;;13.27;58.73;102540.75;6226203;22;45477;-84
2021/12/15 07:54:11;;;;;;;;;21.00;17.00;;;;;13.21;58.20;102526.34;6224817;22;45376;-84
2021/12/15 07:56:37;;;;;;;;;22.33;20.00;;;;;13.36;58.26;102538.41;6225226;22;45451;-85
2021/12/15 07:59:04;;;;;;;;;27.00;21.33;;;;;13.55;58.18;102529.19;6228091;22;45365;-85
2021/12/15 08:01:30;;;;;;;;;26.00;21.67;;;;;13.38;58.43;102526.91;6227337;22;45223;-86
2021/12/15 08:03:56;;;;;;;;;21.67;18.67;;;;;13.46;58.25;102534.28;6225231;22;45444;-84
2021/12/15 08:06:23;;;;;;;;;23.67;18.00;;;;;13.55;58.81;102542.56;6226603;22;45335;-84
2021/12/15 08:08:49;;;;;;;;;19.00;18.33;;;;;13.48;58.17;102535.22;6228183;22;45246;-85
2021/12/15 08:11:54;;;;;;;;;23.67;19.00;;;;;13.88;57.11;102536.44;6226811;22;45318;-85
2021/12/15 08:14:19;;;;;;;;;18.33;18.33;;;;;13.33;57.74;102525.88;6226196;22;45450;-84
2021/12/15 08:16:48;;;;;;;;;22.00;17.00;;;;;13.32;57.63;102532.06;6224942;22;45546;-85
2021/12/15 08:19:33;;;;;;;;;18.67;17.00;;;;;13.64;58.05;102541.94;6231858;22;46071;-84
2021/12/15 08:22:07;;;;;;;;;18.67;17.67;;;;;13.17;58.20;102502.19;6234397;22;44886;-83
2021/12/15 08:24:43;;;;;;;;;25.33;20.33;;;;;13.69;57.58;102549.22;6229846;22;45470;-86
2021/12/15 08:27:09;;;;;;;;;26.00;23.67;;;;;13.24;58.24;102512.19;6225364;22;44733;-84
2021/12/15 08:29:42;;;;;;;;;21.00;19.67;;;;;13.46;58.66;102545.84;6224595;22;46765;-83
2021/12/15 08:32:20;;;;;;;;;19.33;18.67;;;;;13.66;57.28;102532.22;6223956;22;45358;-84
2021/12/15 08:39:00;;;;;;;;;21.33;20.67;;;;;13.71;57.53;102543.94;6259664;22;44888;-83
2021/12/15 08:45:35;;;;;;;;;21.00;19.67;;;;;13.64;57.57;102515.22;6199018;23;45122;-84
2021/12/15 08:54:59;;;;;;;;;21.67;18.33;;;;;13.72;57.69;102540.41;6198669;23;45598;-84
2021/12/15 08:57:52;;;;;;;;;19.67;18.00;;;;;13.64;58.71;102540.19;6195292;23;44727;-85
2021/12/15 09:00:19;;;;;;;;;19.33;18.00;;;;;13.51;58.32;102562.03;6171710;23;44858;-83
2021/12/15 09:02:46;;;;;;;;;24.67;20.33;;;;;13.54;58.81;102556.78;6168132;23;44924;-83
2021/12/15 09:05:58;;;;;;;;;19.67;18.00;;;;;13.94;58.41;102558.00;6149236;23;47321;-84
2021/12/15 09:08:45;;;;;;;;;19.67;19.00;;;;;14.00;58.02;102561.75;6190064;23;45467;-84
2021/12/15 09:11:49;;;;;;;;;22.33;17.00;;;;;13.84;57.40;102535.44;6164327;23;45478;-84
2021/12/15 09:14:40;;;;;;;;;19.00;17.67;;;;;13.73;57.22;102519.03;6173897;22;45453;-83
2021/12/15 09:17:12;;;;;;;;;15.67;15.67;;;;;13.89;58.23;102559.63;6205402;22;45770;-84
2021/12/15 09:19:38;;;;;;;;;19.33;16.67;;;;;13.52;58.30;102545.16;6252900;22;45435;-84
2021/12/15 09:25:38;;;;;;;;;20.00;16.00;;;;;13.59;58.25;102523.06;6160007;23;45784;-84
2021/12/15 09:28:09;;;;;;;;;17.33;17.33;;;;;13.79;57.90;102553.09;6136304;23;46852;-85
2021/12/15 09:30:44;;;;;;;;;19.67;18.00;;;;;13.78;57.97;102552.19;6160132;23;45446;-85
2021/12/15 09:33:25;;;;;;;;;20.33;19.33;;;;;13.99;58.16;102572.41;6162537;23;45545;-84
2021/12/15 09:36:22;;;;;;;;;21.33;21.00;;;;;13.90;58.05;102583.75;6163146;23;44817;-85
2021/12/15 09:42:20;;;;;;;;;;;;;;;;;;;;;
2021/12/15 10:03:25;;;;;;;;;;;;;;;;;;;;;
2021/12/15 10:06:18;;;;;;;;;;;;;;;;;;;;;
2021/12/15 10:17:42;;;;;;;;;31.00;28.67;;;;;13.71;57.99;102568.91;5984841;23;45411;-85
2021/12/15 10:20:27;;;;;;;;;;;;;;;;;;;;;
2021/12/15 10:23:13;;;;;;;;;32.67;23.67;;;;;13.86;58.60;102567.56;5987551;23;65743;-84
2021/12/15 10:25:57;;;;;;;;;25.00;23.00;;;;;13.82;58.23;102553.19;5992505;23;47009;-85
2021/12/15 10:28:34;;;;;;;;;27.33;25.00;;;;;13.89;58.98;102576.56;5993582;23;45251;-84
2021/12/15 10:31:05;;;;;;;;;31.67;27.33;;;;;13.85;58.58;102584.47;6019248;23;45355;-84
2021/12/15 10:33:59;;;;;;;;;34.33;28.67;;;;;13.92;58.39;102589.16;5994654;23;45369;-85
2021/12/15 10:36:41;;;;;;;;;27.33;27.00;;;;;13.78;59.59;102568.22;6016391;23;47072;-85
2021/12/15 10:39:13;;;;;;;;;27.33;25.33;;;;;14.01;59.17;102584.06;5989931;23;45476;-84
2021/12/15 10:41:44;;;;;;;;;20.33;19.00;;;;;13.96;59.47;102578.56;6050368;23;45469;-85
2021/12/15 10:44:17;;;;;;;;;25.67;23.00;;;;;13.95;58.77;102570.50;6087286;23;45408;-84
2021/12/15 10:47:11;;;;;;;;;26.67;24.67;;;;;13.74;59.12;102566.34;6106721;23;47274;-84
2021/12/15 10:49:50;;;;;;;;;29.33;26.33;;;;;13.97;59.39;102574.13;6101376;23;45411;-84
2021/12/15 10:52:16;;;;;;;;;22.67;22.67;;;;;13.70;59.39;102552.81;6183554;22;45666;-83
2021/12/15 10:54:46;;;;;;;;;26.00;22.00;;;;;14.05;59.12;102583.28;6202213;22;45330;-84
2021/12/15 10:57:38;;;;;;;;;21.00;20.67;;;;;14.04;59.23;102560.09;6172538;22;46948;-85
2021/12/15 11:01:24;;;;;;;;;28.67;25.33;;;;;14.33;59.02;102568.03;6225246;22;45279;-85
2021/12/15 11:03:49;;;;;;;;;28.00;25.33;;;;;14.18;59.01;102531.06;6221223;22;45338;-86
2021/12/15 11:07:08;;;;;;;;;23.67;22.67;;;;;14.40;58.01;102581.63;6198205;22;45437;-86
2021/12/15 11:10:12;;;;;;;;;25.33;23.33;;;;;14.42;58.67;102565.59;6107776;23;45389;-85
2021/12/15 11:13:12;;;;;;;;;24.00;21.00;;;;;14.13;58.54;102540.69;6128759;23;45450;-87
2021/12/15 11:19:32;;;;;;;;;26.67;25.67;;;;;14.15;58.73;102534.53;6014148;23;45762;-84
2021/12/15 11:21:58;;;;;;;;;23.00;20.00;;;;;14.09;59.28;102558.44;5929522;24;45632;-85
2021/12/15 11:24:34;;;;;;;;;25.33;22.67;;;;;14.37;58.71;102553.88;5907876;24;46071;-84
2021/12/15 11:27:17;;;;;;;;;25.67;21.00;;;;;14.47;58.67;102561.28;5921262;23;45302;-85
2021/12/15 11:29:43;;;;;;;;;27.33;25.33;;;;;14.02;59.30;102529.72;5963164;23;45499;-85
2021/12/15 11:32:55;;;;;;;;;34.33;28.67;;;;;14.20;58.50;102516.84;5958529;23;48029;-86
2021/12/15 11:35:36;;;;;;;;;25.00;23.67;;;;;14.24;58.93;102519.59;5957081;23;45550;-88
2021/12/15 11:38:27;;;;;;;;;31.67;27.67;;;;;14.42;58.75;102541.50;5973906;23;45336;-86
2021/12/15 11:40:56;;;;;;;;;31.33;24.00;;;;;14.55;59.03;102554.34;5991246;23;45534;-85
2021/12/15 11:54:13;;;;;;;;;28.33;25.67;;;;;14.48;57.94;102500.59;6230683;22;45458;-90
2021/12/15 11:57:03;;;;;;;;;28.67;27.00;;;;;14.78;58.22;102551.41;6212662;22;47854;-85
2021/12/15 11:59:36;;;;;;;;;27.00;24.33;;;;;14.77;58.30;102544.25;6227535;22;45751;-86
2021/12/15 12:02:09;;;;;;;;;27.67;24.00;;;;;14.52;58.57;102543.59;6228645;22;45316;-86
2021/12/15 12:05:02;;;;;;;;;32.67;27.33;;;;;14.73;58.18;102545.03;6229477;22;45137;-85
2021/12/15 12:07:43;;;;;;;;;28.00;23.33;;;;;14.78;58.03;102551.41;6231503;22;45244;-87
2021/12/15 12:10:23;;;;;;;;;21.67;21.67;;;;;14.65;57.82;102517.16;6226322;22;45334;-85
2021/12/15 12:12:58;;;;;;;;;24.67;22.00;;;;;14.73;58.21;102553.06;6227009;22;45684;-86
2021/12/15 13:14:42;;;;;;;;;25.67;24.33;;;;;14.76;57.29;102500.47;6217662;22;45791;-87
2021/12/15 13:17:28;;;;;;;;;24.33;22.33;;;;;14.76;57.65;102499.56;6227394;22;44796;-87
2021/12/15 13:19:56;;;;;;;;;30.00;27.50;;;;;14.39;58.24;102478.09;6226677;22;45594;-87
2021/12/15 13:31:11;;;;;;;;;28.00;25.00;;;;;14.77;57.70;102480.88;6196484;23;45322;-87
2021/12/15 13:33:59;;;;;;;;;34.67;29.00;;;;;14.95;57.73;102511.66;6191811;23;45409;-87
2021/12/15 13:36:55;;;;;;;;;28.67;27.33;;;;;14.74;57.64;102470.06;6192678;23;44756;-88
2021/12/15 13:39:23;;;;;;;;;27.67;25.00;;;;;14.70;57.74;102511.03;6191276;23;45661;-87
2021/12/15 13:42:30;;;;;;;;;16.67;16.67;;;;;14.68;55.88;102463.66;6193816;23;47126;-88
2021/12/15 13:45:09;;;;;;;;;15.00;14.00;;;;;14.64;56.58;102472.50;6182747;23;45483;-87
2021/12/15 13:48:22;;;;;;;;;;;;;;;;;;;;;
2021/12/15 13:51:41;;;;;;;;;16.33;14.33;;;;;14.67;55.15;102494.91;6131005;23;65172;-88
2021/12/15 13:54:51;;;;;;;;;;;;;;;;;;;;;
2021/12/15 13:57:25;;;;;;;;;7.00;7.00;;;;;14.40;55.64;102501.31;6103895;23;73037;-89
2021/12/15 13:59:51;;;;;;;;;11.00;11.00;;;;;14.34;56.21;102505.59;6102828;23;44940;-86
2021/12/15 14:02:24;;;;;;;;;15.33;15.00;;;;;14.43;55.75;102478.19;6102680;23;45385;-87
2021/12/15 14:04:51;;;;;;;;;20.33;15.00;;;;;14.28;55.78;102484.00;6077665;23;45391;-86
2021/12/15 14:07:28;;;;;;;;;16.67;13.67;;;;;14.57;56.39;102501.78;6103865;23;45412;-86
2021/12/15 14:13:16;;;;;;;;;11.33;11.33;;;;;14.24;56.32;102496.44;6102167;23;45352;-87
2021/12/15 14:15:52;;;;;;;;;13.67;12.00;;;;;14.56;56.49;102512.44;6104820;23;45580;-87
2021/12/15 14:18:31;;;;;;;;;10.00;8.67;;;;;14.56;56.45;102510.69;6104821;23;45497;-87
2021/12/15 14:21:05;;;;;;;;;10.67;10.33;;;;;14.55;56.30;102500.81;6086356;23;44756;-86
2021/12/15 14:23:36;;;;;;;;;14.00;13.00;;;;;14.26;56.14;102469.69;6132244;23;45368;-88
2021/12/15 14:26:06;;;;;;;;;16.67;14.67;;;;;14.47;56.53;102505.06;6106530;23;48087;-87
2021/12/15 14:28:41;;;;;;;;;16.67;14.67;;;;;14.36;56.72;102493.16;6190189;23;45428;-87
2021/12/15 14:31:23;;;;;;;;;12.33;12.33;;;;;14.51;56.82;102488.22;6193635;23;45299;-88
2021/12/15 14:33:57;;;;;;;;;14.33;14.33;;;;;14.58;56.59;102506.28;6193765;23;45415;-86
2021/12/15 14:36:26;;;;;;;;;8.67;7.67;;;;;14.42;57.22;102487.94;6192373;23;47089;-86
2021/12/15 14:39:15;;;;;;;;;14.67;12.33;;;;;14.64;56.71;102500.16;6168399;23;45378;-86
2021/12/15 14:41:46;;;;;;;;;14.00;14.00;;;;;14.60;57.07;102504.56;6191417;23;44717;-86
2021/12/15 14:44:21;;;;;;;;;19.67;15.67;;;;;14.68;56.98;102517.22;6193586;23;45263;-86
2021/12/15 14:46:54;;;;;;;;;16.67;15.33;;;;;14.67;56.92;102521.69;6192621;23;46921;-86
2021/12/15 14:49:31;;;;;;;;;14.67;14.67;;;;;14.68;56.85;102503.84;6195216;22;45702;-87
2021/12/15 14:52:00;;;;;;;;;14.33;12.00;;;;;14.67;56.95;102513.66;6193210;23;45366;-86
2021/12/15 14:54:40;;;;;;;;;;;;;;;;;;;;;
2021/12/15 14:57:31;;;;;;;;;15.00;11.00;;;;;14.89;55.83;102525.81;6192845;23;75037;-87
2021/12/15 15:00:09;;;;;;;;;12.00;10.00;;;;;14.41;56.08;102486.16;6200561;23;45377;-87
2021/12/15 15:03:03;;;;;;;;;8.33;8.33;;;;;14.49;56.25;102506.00;6197658;23;45557;-87
2021/12/15 15:05:38;;;;;;;;;13.33;13.33;;;;;14.28;56.61;102487.63;6200822;23;44858;-87
2021/12/15 15:08:10;;;;;;;;;14.00;12.67;;;;;14.21;57.40;102489.19;6223420;22;45441;-87
2021/12/15 15:10:40;;;;;;;;;10.67;10.67;;;;;14.47;56.91;102522.91;6198413;23;45405;-87
2021/12/15 15:13:06;;;;;;;;;13.33;11.33;;;;;14.23;57.12;102517.78;6195703;23;45295;-86